Sodus, MI (49126)

1:02 PM EDT on July 23, 2016 (GMT -0400)
Upton Middle School | | Change Station
Active Advisory: Air Quality Alert

Elev 630 ft 42.05 °N, 86.47 °W | Updated 20 seconds ago

Clear
Clear
84.7 °F
Feels Like 96 °F
N
3.0
Wind Variable Wind from NNE
Gusts 6.0 mph

Today
High -- | Low -- °F
--% Chance of Precip.
Yesterday
High -- | Low -- °F
Precip. -- in
Pressure 29.99 in
Visibility 10.0 miles
Clouds Clear
Heat Index 96 °F
Dew Point 77 °F
Humidity 79%
Rainfall 0.00 in
Snow Depth Not available.
6:30 AM 9:12 PM
Waning Gibbous, 84% visible
METAR KBEH 231653Z AUTO 29004KT 10SM CLR 32/23 A3000 RMK AO2 SLP153 T03170228
Pressure 29.99 in
Visibility 10.0 miles
Clouds Clear
Heat Index 96 °F
Dew Point 77 °F
Humidity 79%
Rainfall 0.00 in
Snow Depth Not available.
6:30 AM 9:12 PM
Waning Gibbous, 84% visible
METAR KBEH 231653Z AUTO 29004KT 10SM CLR 32/23 A3000 RMK AO2 SLP153 T03170228

10-Day Weather Forecast

Almanac

Astronomy

Jul. 23, 2016 Rise Set
Actual Time
Civil Twilight
Nautical Twilight
Astronomical Twilight
Moon
Length of Visible Light
Length of Day
Tomorrow will be .
, % of the Moon is Illuminated

Today's Extremes

State Highs State Lows

Community

WunderPhotos

Upload Photos

1,926,872 photos uploaded!

WunderBlog® & News

Nearby

Air Quality

  Air Quality AQ Index Pollutant
Not available.

Snow Depth

Station Depth Elevation

Earthquake Activity

City Distance Mag. Time & Date
Minimum magnitude displayed is 2.5.

Coastal Water Temperatures

Place Temperature

Stations

Nearby Weather Stations

Station Location Temp. Windchill Dew Point Humidity Wind Precip. Elev Updated Type
                   

Watches & Warnings

Air Quality Alert
Issued: 5:37 AM EDT Jul. 23, 2016 – National Weather Service

... Air quality alert in effect until midnight EDT tonight...

An air quality action day has been declared by the Michigan
department of environmental quality for Berrien and Cass counties in
Michigan... and is in effect until midnight EDT tonight.

Ozone levels are expected to be in the Orange or unhealthy for
sensitive groups range. For further information... please see the
Michigan department of environmental quality Page on the internet
at... http://www.Deqmiair.Org



537 am EDT Sat Jul 23 2016

... Air quality alert in effect until midnight EDT tonight...

An air quality action day has been declared by the Michigan
department of environmental quality for Berrien and Cass counties in
Michigan... and is in effect until midnight EDT tonight.

Ozone levels are expected to be in the Orange or unhealthy for
sensitive groups range. For further information... please see the
Michigan department of environmental quality Page on the internet
at... http://www.Deqmiair.Org